• Join FlightAware (Why Join?)
  • Login
  • US Flag 
11:10AM EDT


 

Airport Tracker/Info


-or-


 

Live Flight TrackerFlight Track Log ✈ AAL1326 ✈ 08-Apr-2013 ✈ KORD - KFLL

Flight Track Log - Related Links

Times and Time Zones

All times are in EDT time to prevent confusion due to time zone crossing. See the AAL1326 flight status page for this flight to view local times or setup timezone preferences in your user account.

Time Position Orientation Groundspeed Altitude Reporting Facility
EDT Latitude Longitude Course Direction KTS MPH feet Rate Location/Type
06:55PM 41.9430 -87.9040 177° South 164 189 1,500  Level FlightAware
06:55PM 41.9420 -87.9040 180° South 164 189 1,500 1,800 Level FlightAware
06:56PM 41.9200 -87.8940 161° South 187 215 2,400 2,040 Climbing FlightAware
06:56PM 41.8990 -87.8820 157° South 217 250 3,200 2,040 Climbing FlightAware
06:57PM 41.8680 -87.8620 154° Southeast 246 283 4,300 2,400 Climbing FlightAware
06:57PM 41.8410 -87.8530 166° South 252 290 5,400 2,940 Climbing FlightAware
06:58PM 41.8040 -87.8430 169° South 274 315 7,000 3,360 Climbing FlightAware
06:58PM 41.7650 -87.8310 167° South 293 337 8,800 3,600 Climbing FlightAware
06:59PM 41.7120 -87.8140 167° South 311 358 11,200 3,900 Climbing FlightAware
06:59PM 41.6470 -87.7940 167° South 317 365 14,400 3,000 Climbing FlightAware
07:00PM 41.5840 -87.7760 168° South 372 428 15,500 1,800 Climbing FlightAware
07:01PM 41.5170 -87.7560 167° South 409 471 16,800 2,400 Climbing FlightAware
07:02PM 41.4300 -87.7300 167° South 427 491 18,900 3,060 Climbing FlightAware
07:02PM 41.3510 -87.7250 177° South 419 482 21,200 3,960 Climbing FlightAware
07:03PM 41.2760 -87.7250 180° South 396 456 24,200 3,240 Climbing FlightAware
07:04PM 41.1630 -87.7210 178° South 416 479 26,600 2,340 Climbing FlightAware
07:05PM 41.0850 -87.7100 174° South 426 490 28,100 1,920 Climbing FlightAware
07:05PM 41.0070 -87.6990 174° South 438 504 29,200 1,380 Climbing FlightAware
07:06PM 40.9160 -87.6870 174° South 458 527 30,100 1,440 Climbing FlightAware
07:07PM 40.8290 -87.6750 174° South 464 534 31,300 1,800 Climbing FlightAware
07:07PM 40.7330 -87.6620 174° South 465 535 32,700 1,860 Climbing FlightAware
07:08PM 40.6460 -87.6510 175° South 463 533 34,000 2,400 Climbing FlightAware
07:09PM 40.5610 -87.6390 174° South 443 510 35,900 2,100 Climbing FlightAware
07:09PM 40.4760 -87.6280 174° South 440 506 37,000 720 Climbing FlightAware
07:10PM 40.3900 -87.6170 174° South 444 511 37,000  Level FlightAware
07:11PM 40.2980 -87.5930 169° South 467 537 37,000 480 Level FlightAware
07:12PM 40.2180 -87.5450 155° Southeast 474 545 37,700 1,080 Climbing FlightAware
07:12PM 40.1160 -87.4790 154° Southeast 463 533 38,800 1,440 Climbing FlightAware
07:13PM 40.0260 -87.4230 155° Southeast 461 531 40,100 960 Climbing FlightAware
07:14PM 39.9470 -87.3730 154° Southeast 475 547 40,200 120 Climbing FlightAware
07:15PM 39.8160 -87.2830 152° Southeast 488 562 40,400 360 Climbing FlightAware
07:16PM 39.7200 -87.2190 153° Southeast 482 555 41,000 420 Climbing FlightAware
07:16PM 39.6390 -87.1660 153° Southeast 477 549 41,000  Level FlightAware
07:17PM 39.5620 -87.1140 152° Southeast 475 547 41,000  Level FlightAware
07:18PM 39.4750 -87.0560 153° Southeast 477 549 41,000  Level FlightAware
07:19PM 39.3950 -87.0030 153° Southeast 479 551 41,000  Level FlightAware
07:19PM 39.3160 -86.9510 153° Southeast 482 555 41,000  Level FlightAware
07:20PM 39.2250 -86.8920 153° Southeast 484 557 41,000  Level FlightAware
07:21PM 39.1370 -86.8340 153° Southeast 486 559 41,000  Level FlightAware
07:21PM 39.0560 -86.7780 152° Southeast 489 563 41,000  Level FlightAware
07:22PM 38.9640 -86.7260 156° South 478 550 41,000  Level FlightAware
07:23PM 38.8800 -86.6870 160° South 479 551 41,000  Level FlightAware
07:23PM 38.7950 -86.6470 160° South 476 548 41,000  Level FlightAware
07:24PM 38.7120 -86.6090 160° South 473 544 41,000  Level FlightAware
07:25PM 38.6240 -86.5680 160° South 470 541 41,000  Level FlightAware
07:26PM 38.5300 -86.5240 160° South 469 540 41,000  Level FlightAware
07:26PM 38.4480 -86.4860 160° South 469 540 41,000  Level FlightAware
07:27PM 38.3650 -86.4480 160° South 468 539 41,000  Level FlightAware
07:28PM 38.2770 -86.4070 160° South 466 536 41,000  Level FlightAware
07:28PM 38.1960 -86.3700 160° South 465 535 41,000  Level FlightAware
07:29PM 38.1020 -86.3270 160° South 466 536 41,000  Level FlightAware
07:30PM 38.0230 -86.2900 160° South 466 536 41,000  Level FlightAware
07:31PM 37.9320 -86.2490 160° South 468 539 41,000  Level FlightAware
07:31PM 37.8510 -86.2120 160° South 470 541 41,000  Level FlightAware
07:32PM 37.7690 -86.1750 160° South 469 540 41,000  Level FlightAware
07:32PM 37.6969 -86.1424 160° South 471 542 41,000  Level FlightAware ADS-B
07:33PM 37.6338 -86.1139 160° South 471 542 41,000  Level FlightAware ADS-B
07:33PM 37.5718 -86.0859 160° South 472 543 41,000  Level FlightAware ADS-B
07:34PM 37.5092 -86.0577 160° South 472 543 41,000  Level FlightAware ADS-B
07:35PM 37.4428 -86.0280 160° South 471 542 41,000  Level FlightAware ADS-B
07:35PM 37.3763 -85.9983 160° South 470 541 41,000  Level FlightAware ADS-B
07:36PM 37.2470 -85.9400 160° South 466 536 41,000  Level FlightAware
07:37PM 37.1680 -85.9050 161° South 464 534 41,000  Level FlightAware
07:37PM 37.1214 -85.8842 160° South 464 534 41,000  Level FlightAware ADS-B
07:38PM 37.0609 -85.8573 160° South 462 532 41,000  Level FlightAware ADS-B
07:38PM 36.9930 -85.8270 160° South 459 528 41,000  Level FlightAware
07:39PM 36.9220 -85.7950 160° South 459 528 41,000  Level FlightAware
07:40PM 36.8270 -85.7530 161° South 41,000  Level FlightAware
07:40PM 36.8127 -85.7473 162° South 455 524 41,000  Level FlightAware ADS-B
07:40PM 36.7530 -85.7209 160° South 454 522 41,000  Level FlightAware ADS-B
07:41PM 36.6933 -85.6946 161° South 454 522 41,000  Level FlightAware ADS-B
07:41PM 36.6332 -85.6680 160° South 456 525 41,000  Level FlightAware ADS-B
07:42PM 36.5760 -85.6430 161° South 459 528 41,000  Level FlightAware
07:42PM 36.5667 -85.6387 160° South 460 529 41,000  Level FlightAware ADS-B
07:42PM 36.5065 -85.6122 161° South 461 531 41,000  Level FlightAware ADS-B
07:43PM 36.4326 -85.5802 161° South 461 531 41,000  Level FlightAware ADS-B
07:43PM 36.3677 -85.5521 161° South 460 529 41,000  Level FlightAware ADS-B
07:44PM 36.3073 -85.5257 161° South 460 529 41,000  Level FlightAware ADS-B
07:44PM 36.2465 -85.4992 161° South 460 529 41,000  Level FlightAware ADS-B
07:45PM 36.1857 -85.4728 161° South 460 529 41,000  Level FlightAware ADS-B
07:45PM 36.1253 -85.4465 161° South 460 529 41,000  Level FlightAware ADS-B
07:46PM 36.0651 -85.4204 161° South 460 529 41,000  Level FlightAware ADS-B
07:47PM 35.9783 -85.3830 161° South 460 529 41,000  Level FlightAware ADS-B
07:47PM 35.9173 -85.3567 161° South 460 529 41,000  Level FlightAware ADS-B
07:48PM 35.8535 -85.3293 161° South 461 531 41,000  Level FlightAware ADS-B
07:48PM 35.7780 -85.2967 161° South 461 531 41,000  Level FlightAware ADS-B
07:49PM 35.7138 -85.2690 161° South 462 532 41,000  Level FlightAware ADS-B
07:49PM 35.6524 -85.2427 161° South 462 532 41,000  Level FlightAware ADS-B
07:50PM 35.5910 -85.2164 161° South 463 533 41,000  Level FlightAware ADS-B
07:50PM 35.5302 -85.1904 161° South 462 532 41,000  Level FlightAware ADS-B
07:51PM 35.4660 -85.1632 161° South 463 533 41,000  Level FlightAware ADS-B
07:51PM 35.4046 -85.1371 161° South 461 531 41,000  Level FlightAware ADS-B
07:52PM 35.3439 -85.1116 161° South 460 529 41,000  Level FlightAware ADS-B
07:52PM 35.2828 -85.0856 161° South 460 529 41,000  Level FlightAware ADS-B
07:53PM 35.2212 -85.0595 161° South 459 528 41,000  Level FlightAware ADS-B
07:53PM 35.1603 -85.0337 161° South 458 527 41,000  Level FlightAware ADS-B
07:54PM 35.0996 -85.0080 161° South 458 527 41,000  Level FlightAware ADS-B
07:54PM 35.0363 -84.9812 161° South 457 526 41,000  Level FlightAware ADS-B
07:55PM 34.9730 -84.9545 161° South 456 525 41,000  Level FlightAware ADS-B
07:55PM 34.9129 -84.9294 161° South 455 524 41,000  Level FlightAware ADS-B
07:56PM 34.8120 -84.8870 161° South 453 521 41,000  Level FlightAware
07:57PM 34.7260 -84.8510 161° South 453 521 41,000  Level FlightAware
07:58PM 34.6480 -84.8190 161° South 452 520 41,000  Level FlightAware
08:00PM 34.3400 -84.6910 161° South 456 525 41,000  Level FlightAware
08:01PM 34.2928 -84.6714 161° South 457 526 41,000  Level FlightAware ADS-B
08:01PM 34.2290 -84.6449 161° South 458 527 41,000  Level FlightAware ADS-B
08:02PM 34.1643 -84.6182 161° South 458 527 41,000  Level FlightAware ADS-B
08:02PM 34.0977 -84.5909 161° South 458 527 41,000  Level FlightAware ADS-B
08:03PM 33.9910 -84.5470 161° South 457 526 41,000  Level FlightAware
08:04PM 33.9110 -84.5140 161° South 457 526 41,000  Level FlightAware
08:05PM 33.8350 -84.4830 161° South 463 533 41,000  Level FlightAware
08:05PM 33.7410 -84.4440 161° South 463 533 41,000  Level FlightAware
08:06PM 33.6720 -84.4160 161° South 456 525 41,000  Level FlightAware
08:06PM 33.5883 -84.3822 161° South 461 531 41,000  Level FlightAware ADS-B
08:07PM 33.4976 -84.3456 161° South 460 529 41,000  Level FlightAware ADS-B
08:08PM 33.4308 -84.3188 161° South 460 529 41,000  Level FlightAware ADS-B
08:08PM 33.3652 -84.2926 162° South 460 529 41,000  Level FlightAware ADS-B
08:09PM 33.2807 -84.2585 161° South 460 529 41,000  Level FlightAware ADS-B
08:10PM 33.2196 -84.2337 161° South 460 529 41,000  Level FlightAware ADS-B
08:10PM 33.1566 -84.2082 161° South 459 528 41,000  Level FlightAware ADS-B
08:11PM 33.0620 -84.1700 161° South 459 528 41,000  Level FlightAware
08:12PM 32.9790 -84.1380 162° South 457 526 41,000  Level FlightAware
08:12PM 32.8900 -84.1020 161° South 453 521 41,000  Level FlightAware
08:13PM 32.8150 -84.0720 161° South 453 521 41,000  Level FlightAware
08:14PM 32.7510 -84.0450 160° South 453 521 41,000  Level FlightAware
08:14PM 32.6670 -84.0110 161° South 453 521 41,000  Level FlightAware
08:15PM 32.5990 -83.9830 161° South 453 521 41,000  Level FlightAware
08:16PM 32.5320 -83.9560 161° South 453 521 41,000  Level FlightAware
08:16PM 32.4650 -83.9280 161° South 453 521 41,000  Level FlightAware
08:17PM 32.3970 -83.9010 161° South 453 521 41,000  Level FlightAware
08:18PM 32.3130 -83.8670 161° South 453 521 41,000  Level FlightAware
08:19PM 32.2460 -83.8390 161° South 453 521 41,000  Level FlightAware
08:19PM 32.1780 -83.8120 161° South 453 521 41,000  Level FlightAware
08:20PM 32.1110 -83.7840 161° South 453 521 41,000  Level FlightAware
08:21PM 32.0440 -83.7570 161° South 453 521 41,000  Level FlightAware
08:21PM 31.9590 -83.7230 161° South 453 521 41,000  Level FlightAware
08:22PM 31.8920 -83.6950 160° South 453 521 41,000  Level FlightAware
08:23PM 31.8250 -83.6680 161° South 453 521 41,000  Level FlightAware
08:26PM 31.2710 -83.4680 163° South 462 532 41,000  Level FlightAware
08:26PM 31.1850 -83.4340 161° South 461 531 41,000  Level FlightAware
08:27PM 31.0880 -83.3960 161° South 461 531 41,000  Level FlightAware
08:28PM 31.0710 -83.3890 161° South 460 529 41,000  Level FlightAware
08:29PM 30.8990 -83.3250 162° South 459 528 41,000  Level FlightAware
08:30PM 30.7980 -83.2850 161° South 458 527 41,000  Level FlightAware
08:30PM 30.7000 -83.2390 158° South 464 534 41,000  Level FlightAware
08:31PM 30.6380 -83.2080 157° South 464 534 41,000  Level FlightAware
08:32PM 30.5630 -83.1710 157° South 467 537 41,000  Level FlightAware
08:33PM 30.4520 -83.1140 156° South 467 537 41,000  Level FlightAware
08:33PM 30.3850 -83.0800 156° South 467 537 41,000  Level FlightAware
08:34PM 30.5160 -83.1470 336° Northwest 469 540 41,000  Level FlightAware
08:35PM 30.4350 -83.1060 156° South 469 540 41,000  Level FlightAware
08:36PM 30.3680 -83.0710 156° South 469 540 41,000  Level FlightAware
08:37PM 30.4520 -83.1140 336° Northwest 468 539 41,000  Level FlightAware
08:38PM 30.3850 -83.0800 156° South 468 539 41,000  Level FlightAware
08:38PM 29.7700 -82.7770 157° South 462 532 41,000  Level FlightAware
08:39PM 29.6860 -82.7350 157° South 461 531 41,000  Level FlightAware
08:40PM 29.6030 -82.6980 159° South 457 526 41,000  Level FlightAware
08:40PM 29.5290 -82.6850 171° South 449 517 41,000  Level FlightAware
08:41PM 29.4350 -82.6750 175° South 449 517 41,000  Level FlightAware
08:42PM 29.3530 -82.6660 175° South 449 517 41,000  Level FlightAware
08:42PM 29.2580 -82.6550 174° South 450 518 41,000  Level FlightAware
08:43PM 29.1760 -82.6460 175° South 450 518 41,000  Level FlightAware
08:44PM 29.0820 -82.6350 174° South 450 518 41,000  Level FlightAware
08:45PM 28.9980 -82.6260 175° South 450 518 41,000  Level FlightAware
08:45PM 28.9060 -82.6160 175° South 450 518 41,000  Level FlightAware
08:46PM 28.8220 -82.6070 175° South 450 518 41,000  Level FlightAware
08:47PM 28.7210 -82.5950 174° South 450 518 41,000  Level FlightAware
08:47PM 28.6410 -82.5870 175° South 451 519 41,000  Level FlightAware
08:48PM 28.5460 -82.5760 174° South 450 518 41,000  Level FlightAware
08:49PM 28.4610 -82.5670 175° South 452 520 41,000  Level FlightAware
08:50PM 28.3690 -82.5570 175° South 453 521 41,000  Level FlightAware
08:50PM 28.2900 -82.5480 174° South 452 520 41,000  Level FlightAware
08:51PM 28.2040 -82.5390 175° South 451 519 41,000  Level FlightAware
08:52PM 28.1080 -82.5290 175° South 449 517 41,000  Level FlightAware
08:52PM 28.0240 -82.5200 175° South 448 516 41,000  Level FlightAware
08:53PM 27.9410 -82.5050 171° South 456 525 41,000  Level FlightAware
08:54PM 27.8530 -82.4730 162° South 461 531 41,000  Level FlightAware
08:54PM 27.7710 -82.4430 162° South 460 529 41,000 -600 Level FlightAware
08:55PM 27.6770 -82.4080 162° South 461 531 40,200 -1,380 Descending FlightAware
08:56PM 27.5960 -82.3790 162° South 457 526 39,100 -1,680 Descending FlightAware
08:56PM 27.5180 -82.3400 156° South 472 543 38,000 -1,860 Descending FlightAware
08:57PM 27.4390 -82.2780 145° Southeast 486 559 36,500 -2,100 Descending FlightAware
08:58PM 27.3660 -82.2170 143° Southeast 486 559 35,100 -2,220 Descending FlightAware
08:59PM 27.2840 -82.1490 144° Southeast 486 559 33,400 -2,220 Descending FlightAware
08:59PM 27.2110 -82.0880 143° Southeast 489 563 32,000 -2,040 Descending FlightAware
09:00PM 27.1370 -82.0250 143° Southeast 494 568 30,700 -2,040 Descending FlightAware
09:01PM 27.0640 -81.9660 144° Southeast 497 572 29,300 -2,100 Descending FlightAware
09:01PM 26.9820 -81.8990 144° Southeast 499 574 27,800 -2,160 Descending FlightAware
09:02PM 26.8790 -81.8150 144° Southeast 501 577 25,700 -2,340 Descending FlightAware
09:03PM 26.7940 -81.7460 144° Southeast 486 559 23,900 -2,520 Descending FlightAware
09:04PM 26.7220 -81.6880 144° Southeast 468 539 22,200 -1,380 Descending FlightAware
09:04PM 26.6690 -81.6430 143° Southeast 468 539 22,200  Level FlightAware
09:05PM 26.5950 -81.5810 143° Southeast 468 539 22,200  Level FlightAware
09:06PM 26.5360 -81.5310 143° Southeast 468 539 22,200  Level FlightAware
09:06PM 26.4780 -81.4820 143° Southeast 468 539 22,200  Level FlightAware
09:07PM 26.4190 -81.4320 143° Southeast 468 539 22,200 -2,700 Level FlightAware
09:12PM 26.1500 -81.0360 127° Southeast 283 326 8,500 -2,820 Descending FlightAware
09:12PM 26.1420 -81.0040 106° East 283 326 8,500 -1,560 Level FlightAware
09:13PM 26.1390 -80.9570 94° East 271 312 7,100 -2,220 Descending FlightAware
09:13PM 26.1330 -80.9160 99° East 269 310 6,300 -960 Descending FlightAware
09:14PM 26.1280 -80.8710 97° East 273 314 6,100 -480 Descending FlightAware
09:14PM 26.1200 -80.8200 100° East 276 318 5,800 -240 Descending FlightAware
09:15PM 26.1100 -80.7490 99° East 271 312 5,800  Level FlightAware
09:15PM 26.1090 -80.7390 96° East 271 312 5,800 -360 Level FlightAware
09:18PM 26.0790 -80.5130 98° East 227 261 4,800 -360 Descending FlightAware
09:19PM 26.0780 -80.4440 91° East 220 253 4,600 -420 Descending FlightAware
09:19PM 26.0780 -80.4220 90° East 205 236 4,300 -1,080 Descending FlightAware
09:20PM 26.0780 -80.3640 90° East 174 200 3,200 -960 Descending FlightAware
09:22PM 26.0780 -80.2900 90° East 166 191 2,000 -900 Descending FlightAware
09:23PM 26.0770 -80.2450 91° East 152 175 1,200 -840 Descending FlightAware
09:23PM 26.0770 -80.2380 90° East 145 167 1,100 -480 Descending FlightAware
09:24PM 26.0780 -80.2070 88° East 128 147 800 -600 Descending FlightAware
09:25PM 26.0770 -80.1740 92° East 127 146 200 -720 Descending FlightAware